De Haan, Belgium
Current Conditions -  °F | °C
As of 11:50 AM on Saturday 25 Oct 2014 (Local Time) from EBOS Reporting Station
Scattered Clouds Scattered Clouds  
Wind Chill: 13°   Ceiling: Unl
Heat Index: 13°   Visibility: 6mi
Dew Point:   Wind: 14mph
Humidity: 67%   Direction: 270°W
Pressure: 30.09"   Gusts: NA
Location:  51.27°N, 3.03°E
Report Text: EBOS 250950Z 27012KT 9999 FEW014 SCT040 13/07 Q1019 NOSIG
Loading
Personal Weather Stations






























Interactive Weather Map
Tropical Storm Tracking
New forecast layout! Learn more

10-Day Weather Forecast

Advertisements
Track Severe Weather on mobile